FVX weather

Farmville Regional Airport
Farmville, Virginia, United States

Public forecast

Using degrees Fahrenheit for public forecast. Weather courtesy of forecast.io.

METAR (pilot weather report)

Retrieved 2019/09/16 19:35 UTC (21 minutes ago):

KFVX 161935Z AUTO 00000KT 10SM CLR 34/15 A2997 RMK AO2 T03430150

TAF (pilot weather forecast)

Closest forecast is Lynchburg Regional Preston Glenn Field, 36.4 nm (67.5 km) W. Retrieved 2019/09/16 18:48 UTC (1 hour ago):

TAF KLYH 161744Z 1618/1718 22004KT P6SM SKC FM170800 00000KT P6SM FEW060 FM171200 04002KT P6SM SCT025 BKN035 FM171600 05007KT 6SM -RA BKN030